Airfield :
LOGIN :

Register | Disclaimer

   EN    FR    IT 

 










Legend :    VFR   Marginal VFR   IFR   Intensive IFR   Very Intensive IFR
Visi :
Ceiling :
>= 8 km
>= 3000ft
5 to 8 km
1000 to 3000 ft
1500m to 5 km
500 to 1000 ft
800 to 1500m
200 to 500 ft
< 800m
< 200 ft
Symbols :   Thunderstorms  Fog  Heavy snow  Heavy precipitations  Wind > 20 kt
SIGMETs :     Misc.  Thunderstorms  Icing  Turbulence  Mountain Waves  Volcanic Ashes






- Airport Elevation : 386 ft
- IATA code : QOE


ETNN - Nörvenich Airforce Base

CURRENT METAR :
  • 021220Z 02009KT 5000 -RA BR SCT006 OVC010 03/02 Q1021 GRN

EXPIRED METARs :
  • 021144Z 03009KT 4500 -RA BR BKN006 OVC010 03/02 Q1021 YLO FCST CNL
  • 021120Z 02007KT 3800 R06/0800N -RA BR BKN006 OVC010 03/02 Q1021 YLO YLO TEMPO GRN
  • 021020Z 30003KT 3800 R06/0800N BR FEW002 SCT004 OVC005 02/01 Q1022 YLO YLO TEMPO GRN
  • 020930Z 34003KT 3800 R06/0800N -RA BR BKN005 OVC007 02/01 Q1022 YLO GRN TEMPO YLO

TAF AMD TAF ETNN
Valid from the 02 at 10:00 until the 02 at 18:00 UTC


021024Z 0210/0218 35004KT 3500 -RASN FEW003 BKN005
TEMPO 0210/0212 02007KT 7000 NSW BKN008
TEMPO 0212/0218 03008KT 2000 SNRA OVC003 BY ETGL



MET'MAP, your aeronautical weather chart ! - Copyright ORBIFLY December 2007 - Disclaimer

ORBIFLY MET'MAP TEAM :

Programming & Development : Alexandra Zaïnal
Original concept : Baudouin d'Aumeries
Technical & hardware support : Manuel Goepfert
Assistance : Marc-Olivier Méhu




SOURCES & CREDITS :

   NOAA